sensor_id;sensor_type;location;lat;lon;timestamp;temperature;humidity
46217;DHT22;47258;59.424;13.482;2023-12-20T00:01:05;-1.00;99.90
46217;DHT22;47258;59.424;13.482;2023-12-20T00:03:32;-1.00;99.90
46217;DHT22;47258;59.424;13.482;2023-12-20T00:05:59;-1.00;99.90
46217;DHT22;47258;59.424;13.482;2023-12-20T00:08:26;-1.10;99.90
46217;DHT22;47258;59.424;13.482;2023-12-20T00:10:53;-1.10;99.90
46217;DHT22;47258;59.424;13.482;2023-12-20T00:13:20;-1.10;99.90
46217;DHT22;47258;59.424;13.482;2023-12-20T00:15:48;-1.10;99.90
46217;DHT22;47258;59.424;13.482;2023-12-20T00:18:15;-1.20;99.90
46217;DHT22;47258;59.424;13.482;2023-12-20T00:20:44;-1.20;99.90
46217;DHT22;47258;59.424;13.482;2023-12-20T00:23:11;-1.30;99.90
46217;DHT22;47258;59.424;13.482;2023-12-20T00:25:38;-1.30;99.90
46217;DHT22;47258;59.424;13.482;2023-12-20T00:28:05;-1.30;99.90
46217;DHT22;47258;59.424;13.482;2023-12-20T00:30:33;-1.20;99.90
46217;DHT22;47258;59.424;13.482;2023-12-20T00:33:01;-1.20;99.90
46217;DHT22;47258;59.424;13.482;2023-12-20T00:35:28;-1.10;99.90
46217;DHT22;47258;59.424;13.482;2023-12-20T00:37:55;-1.10;99.90
46217;DHT22;47258;59.424;13.482;2023-12-20T00:40:22;-1.10;99.90
46217;DHT22;47258;59.424;13.482;2023-12-20T00:42:49;-1.00;99.90
46217;DHT22;47258;59.424;13.482;2023-12-20T00:45:16;-1.00;99.90
46217;DHT22;47258;59.424;13.482;2023-12-20T00:47:43;-1.00;99.90
46217;DHT22;47258;59.424;13.482;2023-12-20T00:50:11;-1.00;99.90
46217;DHT22;47258;59.424;13.482;2023-12-20T00:52:38;-1.00;99.90
46217;DHT22;47258;59.424;13.482;2023-12-20T00:55:05;-1.00;99.90
46217;DHT22;47258;59.424;13.482;2023-12-20T00:57:33;-1.00;99.90
46217;DHT22;47258;59.424;13.482;2023-12-20T01:00:00;-1.00;99.90
46217;DHT22;47258;59.424;13.482;2023-12-20T01:02:27;-1.10;99.90
46217;DHT22;47258;59.424;13.482;2023-12-20T01:04:54;-1.00;99.90
46217;DHT22;47258;59.424;13.482;2023-12-20T01:07:23;-1.00;99.90
46217;DHT22;47258;59.424;13.482;2023-12-20T01:09:50;-1.00;99.90
46217;DHT22;47258;59.424;13.482;2023-12-20T01:12:17;-1.00;99.90
46217;DHT22;47258;59.424;13.482;2023-12-20T01:14:45;-1.00;99.90
46217;DHT22;47258;59.424;13.482;2023-12-20T01:17:12;-1.00;99.90
46217;DHT22;47258;59.424;13.482;2023-12-20T01:19:39;-0.90;99.90
46217;DHT22;47258;59.424;13.482;2023-12-20T01:22:07;-0.90;99.90
46217;DHT22;47258;59.424;13.482;2023-12-20T01:24:35;-0.80;99.90
46217;DHT22;47258;59.424;13.482;2023-12-20T01:27:02;-0.80;99.90
46217;DHT22;47258;59.424;13.482;2023-12-20T01:29:28;-0.70;99.90
46217;DHT22;47258;59.424;13.482;2023-12-20T01:31:55;-0.70;99.90
46217;DHT22;47258;59.424;13.482;2023-12-20T01:34:22;-0.60;99.90
46217;DHT22;47258;59.424;13.482;2023-12-20T01:36:49;-0.60;99.90
46217;DHT22;47258;59.424;13.482;2023-12-20T01:39:17;-0.50;99.90
46217;DHT22;47258;59.424;13.482;2023-12-20T01:41:45;-0.40;99.90
46217;DHT22;47258;59.424;13.482;2023-12-20T01:44:12;-0.30;99.90
46217;DHT22;47258;59.424;13.482;2023-12-20T01:46:39;-0.20;99.90
46217;DHT22;47258;59.424;13.482;2023-12-20T01:49:07;-0.10;99.90
46217;DHT22;47258;59.424;13.482;2023-12-20T01:51:34;0.00;99.90
46217;DHT22;47258;59.424;13.482;2023-12-20T01:54:02;0.10;99.90
46217;DHT22;47258;59.424;13.482;2023-12-20T01:56:30;0.20;99.90
46217;DHT22;47258;59.424;13.482;2023-12-20T01:59:00;0.30;99.90
46217;DHT22;47258;59.424;13.482;2023-12-20T02:01:28;0.40;99.90
46217;DHT22;47258;59.424;13.482;2023-12-20T02:04:04;0.50;99.90
46217;DHT22;47258;59.424;13.482;2023-12-20T02:06:33;0.60;99.90
46217;DHT22;47258;59.424;13.482;2023-12-20T02:09:00;0.70;99.90
46217;DHT22;47258;59.424;13.482;2023-12-20T02:11:27;0.70;99.90
46217;DHT22;47258;59.424;13.482;2023-12-20T02:13:54;0.80;99.90
46217;DHT22;47258;59.424;13.482;2023-12-20T02:16:23;0.80;99.90
46217;DHT22;47258;59.424;13.482;2023-12-20T02:18:50;0.90;99.90
46217;DHT22;47258;59.424;13.482;2023-12-20T02:21:17;1.00;99.90
46217;DHT22;47258;59.424;13.482;2023-12-20T02:23:45;1.00;99.90
46217;DHT22;47258;59.424;13.482;2023-12-20T02:26:12;0.90;99.90
46217;DHT22;47258;59.424;13.482;2023-12-20T02:28:39;0.90;99.90
46217;DHT22;47258;59.424;13.482;2023-12-20T02:31:07;1.00;99.90
46217;DHT22;47258;59.424;13.482;2023-12-20T02:33:33;1.00;99.90
46217;DHT22;47258;59.424;13.482;2023-12-20T02:36:00;1.10;99.90
46217;DHT22;47258;59.424;13.482;2023-12-20T02:38:27;1.10;99.90
46217;DHT22;47258;59.424;13.482;2023-12-20T02:40:56;1.10;99.90
46217;DHT22;47258;59.424;13.482;2023-12-20T02:43:22;1.10;99.90
46217;DHT22;47258;59.424;13.482;2023-12-20T02:45:49;1.10;99.90
46217;DHT22;47258;59.424;13.482;2023-12-20T02:48:17;1.10;99.90
46217;DHT22;47258;59.424;13.482;2023-12-20T02:50:45;1.10;99.90
46217;DHT22;47258;59.424;13.482;2023-12-20T02:53:13;1.20;99.90
46217;DHT22;47258;59.424;13.482;2023-12-20T02:55:40;1.20;99.90
46217;DHT22;47258;59.424;13.482;2023-12-20T02:58:08;1.20;99.90
46217;DHT22;47258;59.424;13.482;2023-12-20T03:00:35;1.30;99.90
46217;DHT22;47258;59.424;13.482;2023-12-20T03:03:02;1.30;99.90
46217;DHT22;47258;59.424;13.482;2023-12-20T03:05:29;1.30;99.90
46217;DHT22;47258;59.424;13.482;2023-12-20T03:07:56;1.10;99.90
46217;DHT22;47258;59.424;13.482;2023-12-20T03:10:23;1.00;99.90
46217;DHT22;47258;59.424;13.482;2023-12-20T03:12:50;0.90;99.90
46217;DHT22;47258;59.424;13.482;2023-12-20T03:15:18;0.90;99.90
46217;DHT22;47258;59.424;13.482;2023-12-20T03:17:45;0.90;99.90
46217;DHT22;47258;59.424;13.482;2023-12-20T03:20:12;0.90;99.90
46217;DHT22;47258;59.424;13.482;2023-12-20T03:22:39;1.00;99.90
46217;DHT22;47258;59.424;13.482;2023-12-20T03:25:07;1.00;99.90
46217;DHT22;47258;59.424;13.482;2023-12-20T03:27:34;1.00;99.90
46217;DHT22;47258;59.424;13.482;2023-12-20T03:30:04;1.10;99.90
46217;DHT22;47258;59.424;13.482;2023-12-20T03:32:33;1.10;99.90
46217;DHT22;47258;59.424;13.482;2023-12-20T03:35:00;1.10;99.90
46217;DHT22;47258;59.424;13.482;2023-12-20T03:37:27;1.10;99.90
46217;DHT22;47258;59.424;13.482;2023-12-20T03:39:54;1.10;99.90
46217;DHT22;47258;59.424;13.482;2023-12-20T03:42:21;1.00;99.90
46217;DHT22;47258;59.424;13.482;2023-12-20T03:44:48;1.10;99.90
46217;DHT22;47258;59.424;13.482;2023-12-20T03:47:15;1.10;99.90
46217;DHT22;47258;59.424;13.482;2023-12-20T03:49:43;1.10;99.90
46217;DHT22;47258;59.424;13.482;2023-12-20T03:52:10;1.10;99.90
46217;DHT22;47258;59.424;13.482;2023-12-20T03:54:37;1.20;99.90
46217;DHT22;47258;59.424;13.482;2023-12-20T03:57:04;1.20;99.90
46217;DHT22;47258;59.424;13.482;2023-12-20T03:59:35;1.20;99.90
46217;DHT22;47258;59.424;13.482;2023-12-20T04:02:02;1.30;99.90
46217;DHT22;47258;59.424;13.482;2023-12-20T04:04:29;1.30;99.90
46217;DHT22;47258;59.424;13.482;2023-12-20T04:06:57;1.40;99.90
46217;DHT22;47258;59.424;13.482;2023-12-20T04:09:24;1.40;99.90
46217;DHT22;47258;59.424;13.482;2023-12-20T04:11:51;1.50;99.90
46217;DHT22;47258;59.424;13.482;2023-12-20T04:14:18;1.50;99.90
46217;DHT22;47258;59.424;13.482;2023-12-20T04:16:46;1.40;99.90
46217;DHT22;47258;59.424;13.482;2023-12-20T04:19:14;1.50;99.90
46217;DHT22;47258;59.424;13.482;2023-12-20T04:21:40;1.40;99.90
46217;DHT22;47258;59.424;13.482;2023-12-20T04:24:09;1.50;99.90
46217;DHT22;47258;59.424;13.482;2023-12-20T04:26:36;1.50;99.90
46217;DHT22;47258;59.424;13.482;2023-12-20T04:29:03;1.50;99.90
46217;DHT22;47258;59.424;13.482;2023-12-20T04:31:29;1.50;99.90
46217;DHT22;47258;59.424;13.482;2023-12-20T04:33:56;1.50;99.90
46217;DHT22;47258;59.424;13.482;2023-12-20T04:36:23;1.40;99.90
46217;DHT22;47258;59.424;13.482;2023-12-20T04:38:52;1.40;99.90
46217;DHT22;47258;59.424;13.482;2023-12-20T04:41:21;1.30;99.90
46217;DHT22;47258;59.424;13.482;2023-12-20T04:43:47;1.40;99.90
46217;DHT22;47258;59.424;13.482;2023-12-20T04:46:14;1.40;99.90
46217;DHT22;47258;59.424;13.482;2023-12-20T04:48:41;1.40;99.90
46217;DHT22;47258;59.424;13.482;2023-12-20T04:51:08;1.40;99.90
46217;DHT22;47258;59.424;13.482;2023-12-20T04:53:35;1.40;99.90
46217;DHT22;47258;59.424;13.482;2023-12-20T04:56:02;1.50;99.90
46217;DHT22;47258;59.424;13.482;2023-12-20T04:58:31;1.60;99.90
46217;DHT22;47258;59.424;13.482;2023-12-20T05:00:58;1.60;99.90
46217;DHT22;47258;59.424;13.482;2023-12-20T05:03:25;1.70;99.90
46217;DHT22;47258;59.424;13.482;2023-12-20T05:05:52;1.70;99.90
46217;DHT22;47258;59.424;13.482;2023-12-20T05:08:19;1.80;99.90
46217;DHT22;47258;59.424;13.482;2023-12-20T05:10:46;1.80;99.90
46217;DHT22;47258;59.424;13.482;2023-12-20T05:13:13;1.80;99.90
46217;DHT22;47258;59.424;13.482;2023-12-20T05:15:41;1.90;99.90
46217;DHT22;47258;59.424;13.482;2023-12-20T05:18:08;1.80;99.90
46217;DHT22;47258;59.424;13.482;2023-12-20T05:20:35;1.90;99.90
46217;DHT22;47258;59.424;13.482;2023-12-20T05:23:03;1.90;99.90
46217;DHT22;47258;59.424;13.482;2023-12-20T05:25:29;1.90;99.90
46217;DHT22;47258;59.424;13.482;2023-12-20T05:27:56;2.00;99.90
46217;DHT22;47258;59.424;13.482;2023-12-20T05:30:23;2.00;99.90
46217;DHT22;47258;59.424;13.482;2023-12-20T05:32:52;2.10;99.90
46217;DHT22;47258;59.424;13.482;2023-12-20T05:35:19;2.10;99.90
46217;DHT22;47258;59.424;13.482;2023-12-20T05:37:47;2.20;99.90
46217;DHT22;47258;59.424;13.482;2023-12-20T05:40:14;2.20;99.90
46217;DHT22;47258;59.424;13.482;2023-12-20T05:42:41;2.20;99.90
46217;DHT22;47258;59.424;13.482;2023-12-20T05:45:09;2.20;99.90
46217;DHT22;47258;59.424;13.482;2023-12-20T05:47:36;2.20;99.90
46217;DHT22;47258;59.424;13.482;2023-12-20T05:50:05;2.20;99.90
46217;DHT22;47258;59.424;13.482;2023-12-20T05:52:33;2.20;99.90
46217;DHT22;47258;59.424;13.482;2023-12-20T05:55:00;2.20;99.90
46217;DHT22;47258;59.424;13.482;2023-12-20T05:57:27;2.20;99.90
46217;DHT22;47258;59.424;13.482;2023-12-20T05:59:55;2.20;99.90
46217;DHT22;47258;59.424;13.482;2023-12-20T06:02:21;2.20;99.90
46217;DHT22;47258;59.424;13.482;2023-12-20T06:04:48;2.20;99.90
46217;DHT22;47258;59.424;13.482;2023-12-20T06:07:17;2.20;99.90
46217;DHT22;47258;59.424;13.482;2023-12-20T06:09:44;2.20;99.90
46217;DHT22;47258;59.424;13.482;2023-12-20T06:12:11;2.20;99.90
46217;DHT22;47258;59.424;13.482;2023-12-20T06:14:37;2.30;99.90
46217;DHT22;47258;59.424;13.482;2023-12-20T06:17:04;2.30;99.90
46217;DHT22;47258;59.424;13.482;2023-12-20T06:19:31;2.30;99.90
46217;DHT22;47258;59.424;13.482;2023-12-20T06:21:58;2.30;99.90
46217;DHT22;47258;59.424;13.482;2023-12-20T06:24:26;2.30;99.90
46217;DHT22;47258;59.424;13.482;2023-12-20T06:26:53;2.40;99.90
46217;DHT22;47258;59.424;13.482;2023-12-20T06:29:21;2.40;99.90
46217;DHT22;47258;59.424;13.482;2023-12-20T06:31:47;2.40;99.90
46217;DHT22;47258;59.424;13.482;2023-12-20T06:34:14;2.40;99.90
46217;DHT22;47258;59.424;13.482;2023-12-20T06:36:41;2.40;99.90
46217;DHT22;47258;59.424;13.482;2023-12-20T06:39:08;2.40;99.90
46217;DHT22;47258;59.424;13.482;2023-12-20T06:41:39;2.40;99.90
46217;DHT22;47258;59.424;13.482;2023-12-20T06:44:06;2.40;99.90
46217;DHT22;47258;59.424;13.482;2023-12-20T06:46:33;2.50;99.90
46217;DHT22;47258;59.424;13.482;2023-12-20T06:49:00;2.50;99.90
46217;DHT22;47258;59.424;13.482;2023-12-20T06:51:27;2.50;99.90
46217;DHT22;47258;59.424;13.482;2023-12-20T06:53:56;2.50;99.90
46217;DHT22;47258;59.424;13.482;2023-12-20T06:56:23;2.50;99.90
46217;DHT22;47258;59.424;13.482;2023-12-20T06:58:51;2.60;99.90
46217;DHT22;47258;59.424;13.482;2023-12-20T07:01:18;2.60;99.90
46217;DHT22;47258;59.424;13.482;2023-12-20T07:03:45;2.60;99.90
46217;DHT22;47258;59.424;13.482;2023-12-20T07:06:12;2.60;99.90
46217;DHT22;47258;59.424;13.482;2023-12-20T07:08:41;2.70;99.90
46217;DHT22;47258;59.424;13.482;2023-12-20T07:11:08;2.70;99.90
46217;DHT22;47258;59.424;13.482;2023-12-20T07:13:35;2.70;99.90
46217;DHT22;47258;59.424;13.482;2023-12-20T07:16:04;2.70;99.90
46217;DHT22;47258;59.424;13.482;2023-12-20T07:18:31;2.70;99.90
46217;DHT22;47258;59.424;13.482;2023-12-20T07:20:57;2.70;99.90
46217;DHT22;47258;59.424;13.482;2023-12-20T07:23:24;2.70;99.90
46217;DHT22;47258;59.424;13.482;2023-12-20T07:25:52;2.80;99.90
46217;DHT22;47258;59.424;13.482;2023-12-20T07:28:19;2.80;99.90
46217;DHT22;47258;59.424;13.482;2023-12-20T07:30:46;2.80;99.90
46217;DHT22;47258;59.424;13.482;2023-12-20T07:33:14;2.80;99.90
46217;DHT22;47258;59.424;13.482;2023-12-20T07:35:41;2.90;99.90
46217;DHT22;47258;59.424;13.482;2023-12-20T07:38:08;2.90;99.90
46217;DHT22;47258;59.424;13.482;2023-12-20T07:40:35;2.90;99.90
46217;DHT22;47258;59.424;13.482;2023-12-20T07:43:03;2.90;99.90
46217;DHT22;47258;59.424;13.482;2023-12-20T07:45:29;2.90;99.90
46217;DHT22;47258;59.424;13.482;2023-12-20T07:47:56;2.90;99.90
46217;DHT22;47258;59.424;13.482;2023-12-20T07:50:25;3.00;99.90
46217;DHT22;47258;59.424;13.482;2023-12-20T07:52:52;2.90;99.90
46217;DHT22;47258;59.424;13.482;2023-12-20T07:55:19;3.00;99.90
46217;DHT22;47258;59.424;13.482;2023-12-20T07:57:45;3.00;99.90
46217;DHT22;47258;59.424;13.482;2023-12-20T08:00:13;3.00;99.90
46217;DHT22;47258;59.424;13.482;2023-12-20T08:02:40;3.00;99.90
46217;DHT22;47258;59.424;13.482;2023-12-20T08:05:07;3.00;99.90
46217;DHT22;47258;59.424;13.482;2023-12-20T08:07:36;3.00;99.90
46217;DHT22;47258;59.424;13.482;2023-12-20T08:10:04;3.00;99.90
46217;DHT22;47258;59.424;13.482;2023-12-20T08:12:31;3.00;99.90
46217;DHT22;47258;59.424;13.482;2023-12-20T08:14:59;3.00;99.90
46217;DHT22;47258;59.424;13.482;2023-12-20T08:17:26;3.10;99.90
46217;DHT22;47258;59.424;13.482;2023-12-20T08:19:53;3.10;99.90
46217;DHT22;47258;59.424;13.482;2023-12-20T08:22:20;3.10;99.90
46217;DHT22;47258;59.424;13.482;2023-12-20T08:24:48;3.10;99.90
46217;DHT22;47258;59.424;13.482;2023-12-20T08:27:15;3.20;99.90
46217;DHT22;47258;59.424;13.482;2023-12-20T08:29:43;3.20;99.90
46217;DHT22;47258;59.424;13.482;2023-12-20T08:32:10;3.20;99.90
46217;DHT22;47258;59.424;13.482;2023-12-20T08:34:37;3.20;99.90
46217;DHT22;47258;59.424;13.482;2023-12-20T08:37:04;3.20;99.90
46217;DHT22;47258;59.424;13.482;2023-12-20T08:39:31;3.20;99.90
46217;DHT22;47258;59.424;13.482;2023-12-20T08:42:00;3.20;99.90
46217;DHT22;47258;59.424;13.482;2023-12-20T08:44:27;3.20;99.90
46217;DHT22;47258;59.424;13.482;2023-12-20T08:46:54;3.20;99.90
46217;DHT22;47258;59.424;13.482;2023-12-20T08:49:22;3.20;99.90
46217;DHT22;47258;59.424;13.482;2023-12-20T08:51:51;3.20;99.90
46217;DHT22;47258;59.424;13.482;2023-12-20T08:54:17;3.30;99.90
46217;DHT22;47258;59.424;13.482;2023-12-20T08:56:45;3.20;99.90
46217;DHT22;47258;59.424;13.482;2023-12-20T08:59:14;3.20;99.90
46217;DHT22;47258;59.424;13.482;2023-12-20T09:01:41;3.20;99.90
46217;DHT22;47258;59.424;13.482;2023-12-20T09:04:08;3.30;99.90
46217;DHT22;47258;59.424;13.482;2023-12-20T09:06:35;3.30;99.90
46217;DHT22;47258;59.424;13.482;2023-12-20T09:09:01;3.20;99.90
46217;DHT22;47258;59.424;13.482;2023-12-20T09:11:29;3.20;99.90
46217;DHT22;47258;59.424;13.482;2023-12-20T09:13:56;3.20;99.90
46217;DHT22;47258;59.424;13.482;2023-12-20T09:16:24;3.20;99.90
46217;DHT22;47258;59.424;13.482;2023-12-20T09:18:51;3.20;99.90
46217;DHT22;47258;59.424;13.482;2023-12-20T09:21:18;3.10;99.90
46217;DHT22;47258;59.424;13.482;2023-12-20T09:23:45;3.10;99.90
46217;DHT22;47258;59.424;13.482;2023-12-20T09:26:12;3.10;99.90
46217;DHT22;47258;59.424;13.482;2023-12-20T09:28:39;3.20;99.90
46217;DHT22;47258;59.424;13.482;2023-12-20T09:31:06;3.10;99.90
46217;DHT22;47258;59.424;13.482;2023-12-20T09:33:34;3.20;99.90
46217;DHT22;47258;59.424;13.482;2023-12-20T09:36:01;3.20;99.90
46217;DHT22;47258;59.424;13.482;2023-12-20T09:38:28;3.20;99.90
46217;DHT22;47258;59.424;13.482;2023-12-20T09:40:55;3.20;99.90
46217;DHT22;47258;59.424;13.482;2023-12-20T09:43:24;3.30;99.90
46217;DHT22;47258;59.424;13.482;2023-12-20T09:45:52;3.30;99.90
46217;DHT22;47258;59.424;13.482;2023-12-20T09:48:20;3.30;99.90
46217;DHT22;47258;59.424;13.482;2023-12-20T09:50:48;3.30;99.90
46217;DHT22;47258;59.424;13.482;2023-12-20T09:53:18;3.30;99.90
46217;DHT22;47258;59.424;13.482;2023-12-20T09:55:46;3.40;99.90
46217;DHT22;47258;59.424;13.482;2023-12-20T09:58:13;3.40;99.90
46217;DHT22;47258;59.424;13.482;2023-12-20T10:00:40;3.50;99.90
46217;DHT22;47258;59.424;13.482;2023-12-20T10:03:08;3.60;99.90
46217;DHT22;47258;59.424;13.482;2023-12-20T10:05:35;3.70;99.90
46217;DHT22;47258;59.424;13.482;2023-12-20T10:08:04;3.80;99.90
46217;DHT22;47258;59.424;13.482;2023-12-20T10:10:31;3.80;99.90
46217;DHT22;47258;59.424;13.482;2023-12-20T10:13:02;3.90;99.90
46217;DHT22;47258;59.424;13.482;2023-12-20T10:15:29;4.00;99.90
46217;DHT22;47258;59.424;13.482;2023-12-20T10:17:56;4.00;99.90
46217;DHT22;47258;59.424;13.482;2023-12-20T10:20:23;4.10;99.90
46217;DHT22;47258;59.424;13.482;2023-12-20T10:22:50;4.10;99.90
46217;DHT22;47258;59.424;13.482;2023-12-20T10:25:20;4.20;99.90
46217;DHT22;47258;59.424;13.482;2023-12-20T10:27:49;4.20;99.90
46217;DHT22;47258;59.424;13.482;2023-12-20T10:30:16;4.20;99.90
46217;DHT22;47258;59.424;13.482;2023-12-20T10:32:43;4.30;99.90
46217;DHT22;47258;59.424;13.482;2023-12-20T10:35:10;4.30;99.90
46217;DHT22;47258;59.424;13.482;2023-12-20T10:37:37;4.30;99.90
46217;DHT22;47258;59.424;13.482;2023-12-20T10:40:05;4.40;99.90
46217;DHT22;47258;59.424;13.482;2023-12-20T10:42:35;4.40;99.90
46217;DHT22;47258;59.424;13.482;2023-12-20T10:45:03;4.40;99.90
46217;DHT22;47258;59.424;13.482;2023-12-20T10:47:31;4.40;99.90
46217;DHT22;47258;59.424;13.482;2023-12-20T10:49:59;4.40;99.90
46217;DHT22;47258;59.424;13.482;2023-12-20T10:52:28;4.40;99.90
46217;DHT22;47258;59.424;13.482;2023-12-20T10:54:56;4.40;99.90
46217;DHT22;47258;59.424;13.482;2023-12-20T10:57:27;4.30;99.90
46217;DHT22;47258;59.424;13.482;2023-12-20T10:59:57;4.30;99.90
46217;DHT22;47258;59.424;13.482;2023-12-20T11:02:26;4.30;99.90
46217;DHT22;47258;59.424;13.482;2023-12-20T11:04:59;4.20;99.90
46217;DHT22;47258;59.424;13.482;2023-12-20T11:07:32;4.10;99.90
46217;DHT22;47258;59.424;13.482;2023-12-20T11:10:03;4.10;99.90
46217;DHT22;47258;59.424;13.482;2023-12-20T11:12:39;4.00;99.90
46217;DHT22;47258;59.424;13.482;2023-12-20T11:15:10;4.00;99.90
46217;DHT22;47258;59.424;13.482;2023-12-20T11:17:39;3.90;99.90
46217;DHT22;47258;59.424;13.482;2023-12-20T11:20:08;3.80;99.90
46217;DHT22;47258;59.424;13.482;2023-12-20T11:22:37;3.70;99.90
46217;DHT22;47258;59.424;13.482;2023-12-20T11:25:08;3.70;99.90
46217;DHT22;47258;59.424;13.482;2023-12-20T11:27:34;3.60;99.90
46217;DHT22;47258;59.424;13.482;2023-12-20T11:30:03;3.60;99.90
46217;DHT22;47258;59.424;13.482;2023-12-20T11:32:34;3.50;99.90
46217;DHT22;47258;59.424;13.482;2023-12-20T11:35:01;3.50;99.90
46217;DHT22;47258;59.424;13.482;2023-12-20T11:37:42;3.50;99.90
46217;DHT22;47258;59.424;13.482;2023-12-20T11:40:12;3.40;99.90
46217;DHT22;47258;59.424;13.482;2023-12-20T11:42:40;3.40;99.90
46217;DHT22;47258;59.424;13.482;2023-12-20T11:45:09;3.40;99.90
46217;DHT22;47258;59.424;13.482;2023-12-20T11:47:37;3.40;99.90
46217;DHT22;47258;59.424;13.482;2023-12-20T11:50:06;3.40;99.90
46217;DHT22;47258;59.424;13.482;2023-12-20T11:52:33;3.40;99.90
46217;DHT22;47258;59.424;13.482;2023-12-20T11:55:00;3.40;99.90
46217;DHT22;47258;59.424;13.482;2023-12-20T11:57:27;3.30;99.90
46217;DHT22;47258;59.424;13.482;2023-12-20T11:59:54;3.30;99.90
46217;DHT22;47258;59.424;13.482;2023-12-20T12:02:21;3.30;99.90
46217;DHT22;47258;59.424;13.482;2023-12-20T12:04:50;3.30;99.90
46217;DHT22;47258;59.424;13.482;2023-12-20T12:07:17;3.20;99.90
46217;DHT22;47258;59.424;13.482;2023-12-20T12:09:45;3.20;99.90
46217;DHT22;47258;59.424;13.482;2023-12-20T12:12:12;3.10;99.90
46217;DHT22;47258;59.424;13.482;2023-12-20T12:14:40;3.00;99.90
46217;DHT22;47258;59.424;13.482;2023-12-20T12:17:10;2.90;99.90
46217;DHT22;47258;59.424;13.482;2023-12-20T12:19:37;2.90;99.90
46217;DHT22;47258;59.424;13.482;2023-12-20T12:22:06;2.90;99.90
46217;DHT22;47258;59.424;13.482;2023-12-20T12:24:35;2.80;99.90
46217;DHT22;47258;59.424;13.482;2023-12-20T12:27:03;2.80;99.90
46217;DHT22;47258;59.424;13.482;2023-12-20T12:29:32;2.80;99.90
46217;DHT22;47258;59.424;13.482;2023-12-20T12:31:59;2.80;99.90
46217;DHT22;47258;59.424;13.482;2023-12-20T12:34:27;2.80;99.90
46217;DHT22;47258;59.424;13.482;2023-12-20T12:36:54;2.80;99.90
46217;DHT22;47258;59.424;13.482;2023-12-20T12:39:23;2.70;99.90
46217;DHT22;47258;59.424;13.482;2023-12-20T12:41:51;2.70;99.90
46217;DHT22;47258;59.424;13.482;2023-12-20T12:44:18;2.70;99.90
46217;DHT22;47258;59.424;13.482;2023-12-20T12:46:46;2.60;99.90
46217;DHT22;47258;59.424;13.482;2023-12-20T12:49:15;2.60;99.90
46217;DHT22;47258;59.424;13.482;2023-12-20T12:51:42;2.60;99.90
46217;DHT22;47258;59.424;13.482;2023-12-20T12:54:09;2.60;99.90
46217;DHT22;47258;59.424;13.482;2023-12-20T12:56:40;2.50;99.90
46217;DHT22;47258;59.424;13.482;2023-12-20T12:59:07;2.50;99.90
46217;DHT22;47258;59.424;13.482;2023-12-20T13:01:34;2.50;99.90
46217;DHT22;47258;59.424;13.482;2023-12-20T13:04:01;2.40;99.90
46217;DHT22;47258;59.424;13.482;2023-12-20T13:06:29;2.50;99.90
46217;DHT22;47258;59.424;13.482;2023-12-20T13:08:56;2.40;99.90
46217;DHT22;47258;59.424;13.482;2023-12-20T13:11:23;2.40;99.90
46217;DHT22;47258;59.424;13.482;2023-12-20T13:13:52;2.40;99.90
46217;DHT22;47258;59.424;13.482;2023-12-20T13:16:19;2.40;99.90
46217;DHT22;47258;59.424;13.482;2023-12-20T13:18:46;2.50;99.90
46217;DHT22;47258;59.424;13.482;2023-12-20T13:21:13;2.50;99.90
46217;DHT22;47258;59.424;13.482;2023-12-20T13:23:40;2.50;99.90
46217;DHT22;47258;59.424;13.482;2023-12-20T13:26:07;2.50;99.90
46217;DHT22;47258;59.424;13.482;2023-12-20T13:28:34;2.50;99.90
46217;DHT22;47258;59.424;13.482;2023-12-20T13:31:02;2.40;99.90
46217;DHT22;47258;59.424;13.482;2023-12-20T13:33:29;2.50;99.90
46217;DHT22;47258;59.424;13.482;2023-12-20T13:35:56;2.40;99.90
46217;DHT22;47258;59.424;13.482;2023-12-20T13:38:24;2.40;99.90
46217;DHT22;47258;59.424;13.482;2023-12-20T13:40:50;2.40;99.90
46217;DHT22;47258;59.424;13.482;2023-12-20T13:43:17;2.40;99.90
46217;DHT22;47258;59.424;13.482;2023-12-20T13:45:46;2.30;99.90
46217;DHT22;47258;59.424;13.482;2023-12-20T13:48:14;2.30;99.90
46217;DHT22;47258;59.424;13.482;2023-12-20T13:50:41;2.30;99.90
46217;DHT22;47258;59.424;13.482;2023-12-20T13:53:08;2.30;99.90
46217;DHT22;47258;59.424;13.482;2023-12-20T13:55:35;2.30;99.90
46217;DHT22;47258;59.424;13.482;2023-12-20T13:58:02;2.20;99.90
46217;DHT22;47258;59.424;13.482;2023-12-20T14:00:29;2.20;99.90
46217;DHT22;47258;59.424;13.482;2023-12-20T14:02:56;2.20;99.90
46217;DHT22;47258;59.424;13.482;2023-12-20T14:05:25;2.20;99.90
46217;DHT22;47258;59.424;13.482;2023-12-20T14:07:53;2.10;99.90
46217;DHT22;47258;59.424;13.482;2023-12-20T14:10:23;2.10;99.90
46217;DHT22;47258;59.424;13.482;2023-12-20T14:12:52;2.10;99.90
46217;DHT22;47258;59.424;13.482;2023-12-20T14:15:18;2.00;99.90
46217;DHT22;47258;59.424;13.482;2023-12-20T14:17:45;2.00;99.90
46217;DHT22;47258;59.424;13.482;2023-12-20T14:20:12;2.00;99.90
46217;DHT22;47258;59.424;13.482;2023-12-20T14:22:41;2.00;99.90
46217;DHT22;47258;59.424;13.482;2023-12-20T14:25:10;2.00;99.90
46217;DHT22;47258;59.424;13.482;2023-12-20T14:27:37;1.90;99.90
46217;DHT22;47258;59.424;13.482;2023-12-20T14:30:05;1.90;99.90
46217;DHT22;47258;59.424;13.482;2023-12-20T14:32:34;1.90;99.90
46217;DHT22;47258;59.424;13.482;2023-12-20T14:35:04;1.90;99.90
46217;DHT22;47258;59.424;13.482;2023-12-20T14:37:32;1.80;99.90
46217;DHT22;47258;59.424;13.482;2023-12-20T14:40:00;1.90;99.90
46217;DHT22;47258;59.424;13.482;2023-12-20T14:42:27;1.90;99.90
46217;DHT22;47258;59.424;13.482;2023-12-20T14:44:54;1.80;99.90
46217;DHT22;47258;59.424;13.482;2023-12-20T14:47:21;1.80;99.90
46217;DHT22;47258;59.424;13.482;2023-12-20T14:49:48;1.80;99.90
46217;DHT22;47258;59.424;13.482;2023-12-20T14:52:17;1.80;99.90
46217;DHT22;47258;59.424;13.482;2023-12-20T14:54:45;1.80;99.90
46217;DHT22;47258;59.424;13.482;2023-12-20T14:57:13;1.80;99.90
46217;DHT22;47258;59.424;13.482;2023-12-20T14:59:40;1.80;99.90
46217;DHT22;47258;59.424;13.482;2023-12-20T15:02:09;1.70;99.90
46217;DHT22;47258;59.424;13.482;2023-12-20T15:04:36;1.70;99.90
46217;DHT22;47258;59.424;13.482;2023-12-20T15:07:03;1.70;99.90
46217;DHT22;47258;59.424;13.482;2023-12-20T15:09:31;1.70;99.90
46217;DHT22;47258;59.424;13.482;2023-12-20T15:11:58;1.60;99.90
46217;DHT22;47258;59.424;13.482;2023-12-20T15:14:26;1.60;99.90
46217;DHT22;47258;59.424;13.482;2023-12-20T15:16:54;1.50;99.90
46217;DHT22;47258;59.424;13.482;2023-12-20T15:19:22;1.50;99.90
46217;DHT22;47258;59.424;13.482;2023-12-20T15:21:49;1.40;99.90
46217;DHT22;47258;59.424;13.482;2023-12-20T15:24:16;1.40;99.90
46217;DHT22;47258;59.424;13.482;2023-12-20T15:26:46;1.40;99.90
46217;DHT22;47258;59.424;13.482;2023-12-20T15:29:13;1.30;99.90
46217;DHT22;47258;59.424;13.482;2023-12-20T15:31:44;1.30;99.90